createdAt,value
2023-01-07T00:01:41.182Z,79.57
2023-01-07T00:04:44.205Z,79.49
2023-01-07T00:07:46.843Z,79.43
2023-01-07T00:10:49.480Z,79.43
2023-01-07T00:13:55.109Z,79.70
2023-01-07T00:16:57.784Z,79.58
2023-01-07T00:20:00.586Z,79.72
2023-01-07T00:23:03.243Z,80.14
2023-01-07T00:26:08.172Z,80.35
2023-01-07T00:29:12.876Z,80.14
2023-01-07T00:32:15.739Z,80.93
2023-01-07T00:35:24.436Z,80.58
2023-01-07T00:38:27.456Z,80.84
2023-01-07T00:41:30.097Z,81.23
2023-01-07T00:44:34.381Z,80.96
2023-01-07T00:47:37.051Z,81.32
2023-01-07T00:50:40.363Z,81.83
2023-01-07T00:53:43.429Z,81.92
2023-01-07T00:56:46.073Z,83.15
2023-01-07T00:59:50.406Z,83.23
2023-01-07T01:02:53.546Z,83.54
2023-01-07T01:06:01.740Z,83.35
2023-01-07T01:09:04.479Z,83.79
2023-01-07T01:12:07.750Z,84.49
2023-01-07T01:15:14.354Z,84.09
2023-01-07T01:18:16.988Z,83.98
2023-01-07T01:21:19.944Z,83.74
2023-01-07T01:24:22.599Z,83.90
2023-01-07T01:27:25.533Z,84.29
2023-01-07T01:30:29.547Z,84.79
2023-01-07T01:33:34.172Z,84.98
2023-01-07T01:36:38.487Z,84.90
2023-01-07T01:39:41.084Z,85.30
2023-01-07T01:42:43.743Z,85.08
2023-01-07T01:45:52.469Z,85.63
2023-01-07T01:48:59.376Z,85.72
2023-01-07T01:52:06.957Z,85.96
2023-01-07T01:55:13.431Z,86.19
2023-01-07T01:58:20.780Z,86.21
2023-01-07T02:01:27.065Z,86.40
2023-01-07T02:04:33.778Z,86.43
2023-01-07T02:07:36.482Z,86.51
2023-01-07T02:10:39.450Z,86.31
2023-01-07T02:13:58.495Z,86.65
2023-01-07T02:17:12.661Z,87.23
2023-01-07T02:20:46.457Z,86.97
2023-01-07T02:24:24.994Z,86.68
2023-01-07T02:27:45.727Z,86.73
2023-01-07T02:31:17.534Z,87.19
2023-01-07T02:34:29.108Z,87.30
2023-01-07T02:37:40.407Z,87.33
2023-01-07T02:40:51.374Z,87.13
2023-01-07T02:44:01.983Z,86.92
2023-01-07T02:47:09.974Z,86.89
2023-01-07T02:50:14.521Z,86.78
2023-01-07T02:53:20.522Z,86.86
2023-01-07T02:56:36.325Z,86.83
2023-01-07T03:00:03.616Z,87.57
2023-01-07T03:03:26.865Z,87.42
2023-01-07T03:06:50.295Z,87.07
2023-01-07T03:10:00.240Z,86.99
2023-01-07T03:13:06.356Z,86.59
2023-01-07T03:16:12.847Z,87.20
2023-01-07T03:19:18.284Z,87.53
2023-01-07T03:22:25.833Z,87.60
2023-01-07T03:25:32.759Z,87.58
2023-01-07T03:28:41.466Z,87.66
2023-01-07T03:31:51.816Z,87.96
2023-01-07T03:34:54.929Z,88.48
2023-01-07T03:38:01.831Z,88.46
2023-01-07T03:41:04.966Z,87.68
2023-01-07T03:44:08.157Z,87.37
2023-01-07T03:47:12.056Z,87.39
2023-01-07T03:50:15.166Z,87.20
2023-01-07T03:53:21.108Z,87.78
2023-01-07T03:56:26.378Z,87.82
2023-01-07T03:59:29.262Z,87.97
2023-01-07T04:02:32.387Z,87.86
2023-01-07T04:05:35.099Z,87.95
2023-01-07T04:08:40.078Z,87.99
2023-01-07T04:11:43.042Z,87.97
2023-01-07T04:14:45.947Z,88.08
2023-01-07T04:17:48.559Z,87.88
2023-01-07T04:20:51.579Z,87.96
2023-01-07T04:23:55.758Z,88.22
2023-01-07T04:26:58.518Z,88.47
2023-01-07T04:30:01.590Z,88.33
2023-01-07T04:33:09.545Z,88.10
2023-01-07T04:36:13.751Z,88.02
2023-01-07T04:39:18.547Z,88.09
2023-01-07T04:42:21.659Z,88.60
2023-01-07T04:45:24.954Z,88.77
2023-01-07T04:48:28.373Z,88.79
2023-01-07T04:51:31.304Z,88.87
2023-01-07T04:54:35.547Z,88.45
2023-01-07T04:57:38.618Z,88.97
2023-01-07T05:00:42.462Z,89.80
2023-01-07T05:03:46.367Z,89.11
2023-01-07T05:06:50.279Z,89.37
2023-01-07T05:09:55.681Z,89.17
2023-01-07T05:12:58.513Z,88.60
2023-01-07T05:16:02.545Z,88.34
2023-01-07T05:19:06.115Z,88.21
2023-01-07T05:22:12.957Z,88.22
2023-01-07T05:25:18.536Z,88.33
2023-01-07T05:28:21.598Z,88.13
2023-01-07T05:31:24.842Z,88.07
2023-01-07T05:34:28.335Z,88.63
2023-01-07T05:37:31.333Z,88.76
2023-01-07T05:40:35.537Z,89.02
2023-01-07T05:43:38.964Z,89.56
2023-01-07T05:46:41.614Z,89.04
2023-01-07T05:49:44.232Z,89.41
2023-01-07T05:52:47.419Z,88.97
2023-01-07T05:55:56.022Z,88.96
2023-01-07T05:58:58.752Z,89.19
2023-01-07T06:02:01.751Z,88.89
2023-01-07T06:05:05.104Z,88.67
2023-01-07T06:08:07.766Z,88.27
2023-01-07T06:11:11.878Z,88.28
2023-01-07T06:14:14.740Z,88.71
2023-01-07T06:17:17.372Z,89.17
2023-01-07T06:20:20.426Z,89.57
2023-01-07T06:23:23.283Z,89.72
2023-01-07T06:26:28.471Z,89.47
2023-01-07T06:29:31.516Z,88.91
2023-01-07T06:32:37.428Z,89.08
2023-01-07T06:35:40.313Z,89.76
2023-01-07T06:38:43.012Z,89.82
2023-01-07T06:41:47.134Z,89.94
2023-01-07T06:44:49.858Z,89.50
2023-01-07T06:47:53.604Z,89.35
2023-01-07T06:50:56.365Z,89.45
2023-01-07T06:53:59.138Z,89.16
2023-01-07T06:57:03.222Z,88.84
2023-01-07T07:00:07.063Z,88.77
2023-01-07T07:03:09.770Z,88.29
2023-01-07T07:06:12.888Z,88.19
2023-01-07T07:09:15.643Z,88.20
2023-01-07T07:12:19.793Z,88.06
2023-01-07T07:15:22.500Z,88.04
2023-01-07T07:18:25.360Z,87.31
2023-01-07T07:21:28.239Z,86.63
2023-01-07T07:24:32.383Z,85.50
2023-01-07T07:27:36.473Z,83.64
2023-01-07T07:30:45.980Z,81.75
2023-01-07T07:33:50.472Z,79.53
2023-01-07T07:36:53.102Z,78.63
2023-01-07T07:39:55.740Z,77.09
2023-01-07T07:43:11.216Z,75.70
2023-01-07T07:46:15.425Z,73.33
2023-01-07T07:49:18.263Z,72.73
2023-01-07T07:52:20.979Z,70.87
2023-01-07T07:55:26.321Z,70.09
2023-01-07T07:58:30.757Z,70.04
2023-01-07T08:01:35.863Z,69.31
2023-01-07T08:04:39.802Z,69.43
2023-01-07T08:07:42.943Z,67.59
2023-01-07T08:10:45.794Z,67.04
2023-01-07T08:13:49.839Z,65.09
2023-01-07T08:16:52.688Z,64.91
2023-01-07T08:19:55.460Z,62.70
2023-01-07T08:22:59.215Z,62.07
2023-01-07T08:26:03.063Z,61.12
2023-01-07T08:29:07.245Z,60.19
2023-01-07T08:32:09.972Z,60.23
2023-01-07T08:35:12.859Z,58.77
2023-01-07T08:38:15.682Z,58.45
2023-01-07T08:41:19.234Z,57.67
2023-01-07T08:44:23.343Z,57.36
2023-01-07T08:47:27.938Z,55.37
2023-01-07T08:50:32.384Z,55.95
2023-01-07T08:53:35.194Z,54.83
2023-01-07T08:56:37.863Z,53.99
2023-01-07T08:59:43.456Z,54.24
2023-01-07T09:02:46.432Z,53.66
2023-01-07T09:05:49.103Z,53.34
2023-01-07T09:08:51.977Z,52.25
2023-01-07T09:11:54.676Z,54.38
2023-01-07T09:14:58.752Z,56.04
2023-01-07T09:18:03.697Z,57.41
2023-01-07T09:21:06.795Z,59.96
2023-01-07T09:24:09.471Z,62.12
2023-01-07T09:27:12.095Z,59.71
2023-01-07T09:30:16.856Z,58.94
2023-01-07T09:33:19.523Z,58.69
2023-01-07T09:36:22.255Z,59.09
2023-01-07T09:39:25.524Z,60.53
2023-01-07T09:42:38.339Z,62.35
2023-01-07T09:45:46.564Z,61.69
2023-01-07T09:48:54.086Z,57.83
2023-01-07T09:52:01.765Z,56.74
2023-01-07T09:55:14.470Z,54.85
2023-01-07T09:58:19.403Z,53.92
2023-01-07T10:01:32.765Z,54.72
2023-01-07T10:04:42.054Z,52.86
2023-01-07T10:07:52.939Z,52.57
2023-01-07T10:11:24.879Z,53.39
2023-01-07T10:14:51.944Z,54.36
2023-01-07T10:18:14.025Z,51.75
2023-01-07T10:21:21.172Z,51.76
2023-01-07T10:24:27.643Z,51.71
2023-01-07T10:27:34.437Z,50.01
2023-01-07T10:30:43.046Z,49.14
2023-01-07T10:33:49.141Z,49.47
2023-01-07T10:37:02.403Z,49.17
2023-01-07T10:40:24.780Z,48.60
2023-01-07T10:43:47.105Z,47.26
2023-01-07T10:47:04.067Z,45.23
2023-01-07T10:50:26.408Z,44.65
2023-01-07T10:53:42.871Z,44.81
2023-01-07T10:56:50.810Z,45.94
2023-01-07T10:59:56.314Z,45.26
2023-01-07T11:03:00.894Z,47.27
2023-01-07T11:06:10.338Z,46.79
2023-01-07T11:09:17.413Z,47.66
2023-01-07T11:12:32.383Z,48.80
2023-01-07T11:15:38.114Z,48.55
2023-01-07T11:18:51.715Z,48.80
2023-01-07T11:21:55.805Z,49.49
2023-01-07T11:25:00.500Z,48.59
2023-01-07T11:28:03.735Z,45.48
2023-01-07T11:31:06.502Z,44.07
2023-01-07T11:34:19.164Z,42.10
2023-01-07T11:37:33.542Z,40.75
2023-01-07T11:40:36.279Z,42.09
2023-01-07T11:43:40.638Z,40.39
2023-01-07T11:46:45.285Z,38.52
2023-01-07T11:49:48.146Z,37.36
2023-01-07T11:53:11.286Z,38.05
2023-01-07T11:56:23.915Z,36.26
2023-01-07T11:59:28.843Z,36.74
2023-01-07T12:02:31.611Z,38.36
2023-01-07T12:05:34.478Z,40.78
2023-01-07T12:08:41.924Z,38.37
2023-01-07T12:11:45.754Z,37.65
2023-01-07T12:14:49.444Z,39.07
2023-01-07T12:18:11.334Z,37.53
2023-01-07T12:21:32.461Z,37.62
2023-01-07T12:24:57.426Z,37.42
2023-01-07T12:28:10.944Z,38.92
2023-01-07T12:31:22.747Z,39.20
2023-01-07T12:34:35.255Z,38.48
2023-01-07T12:37:41.646Z,40.42
2023-01-07T12:40:50.844Z,44.74
2023-01-07T12:43:59.659Z,46.98
2023-01-07T12:47:31.867Z,47.38
2023-01-07T12:50:38.546Z,47.28
2023-01-07T12:53:47.956Z,47.82
2023-01-07T12:56:56.779Z,49.79
2023-01-07T13:00:04.512Z,49.83
2023-01-07T13:03:18.311Z,52.68
2023-01-07T13:06:37.325Z,53.37
2023-01-07T13:09:48.105Z,51.31
2023-01-07T13:12:57.099Z,53.89
2023-01-07T13:16:00.262Z,53.09
2023-01-07T13:19:03.211Z,53.25
2023-01-07T13:22:11.067Z,52.87
2023-01-07T13:25:28.580Z,57.23
2023-01-07T13:28:59.462Z,60.10
2023-01-07T13:32:24.757Z,59.69
2023-01-07T13:36:01.978Z,59.84
2023-01-07T13:39:32.626Z,61.47
2023-01-07T13:42:46.184Z,60.85
2023-01-07T13:45:57.064Z,60.46
2023-01-07T13:49:00.050Z,57.94
2023-01-07T13:52:15.740Z,59.17
2023-01-07T13:55:47.407Z,61.40
2023-01-07T13:58:55.485Z,61.18
2023-01-07T14:02:18.378Z,60.64
2023-01-07T14:05:26.248Z,59.43
2023-01-07T14:08:29.346Z,61.17
2023-01-07T14:12:03.866Z,60.79
2023-01-07T14:15:41.320Z,63.51
2023-01-07T14:19:14.581Z,64.89
2023-01-07T14:22:25.677Z,65.71
2023-01-07T14:25:46.280Z,65.97
2023-01-07T14:29:19.162Z,67.56
2023-01-07T14:32:29.562Z,68.98
2023-01-07T14:35:35.953Z,70.78
2023-01-07T14:39:25.823Z,70.44
2023-01-07T14:42:44.795Z,70.49
2023-01-07T14:45:54.785Z,70.75
2023-01-07T14:49:18.309Z,72.04
2023-01-07T14:52:53.973Z,72.84
2023-01-07T14:56:23.743Z,73.64
2023-01-07T14:59:53.405Z,74.05
2023-01-07T15:03:36.219Z,75.39
2023-01-07T15:06:40.274Z,76.35
2023-01-07T15:10:05.274Z,76.99
2023-01-07T15:13:33.528Z,77.51
2023-01-07T15:16:37.974Z,78.08
2023-01-07T15:19:44.705Z,78.54
2023-01-07T15:23:02.832Z,78.79
2023-01-07T15:26:11.024Z,79.27
2023-01-07T15:29:23.600Z,79.88
2023-01-07T15:32:37.575Z,80.15
2023-01-07T15:35:42.984Z,80.53
2023-01-07T15:38:50.693Z,81.56
2023-01-07T15:41:55.209Z,81.75
2023-01-07T15:44:59.409Z,82.05
2023-01-07T15:48:11.229Z,82.10
2023-01-07T15:51:15.258Z,82.03
2023-01-07T15:54:26.730Z,82.37
2023-01-07T15:57:34.339Z,82.46
2023-01-07T16:00:37.634Z,83.42
2023-01-07T16:03:42.683Z,83.39
2023-01-07T16:06:46.695Z,84.00
2023-01-07T16:09:50.273Z,84.54
2023-01-07T16:12:55.275Z,85.27
2023-01-07T16:16:03.134Z,84.83
2023-01-07T16:19:16.535Z,85.42
2023-01-07T16:22:22.785Z,85.36
2023-01-07T16:25:34.877Z,85.51
2023-01-07T16:28:41.317Z,85.19
2023-01-07T16:31:44.764Z,84.96
2023-01-07T16:35:08.051Z,85.75
2023-01-07T16:38:13.611Z,86.83
2023-01-07T16:41:21.203Z,86.15
2023-01-07T16:45:00.192Z,86.48
2023-01-07T16:48:20.044Z,87.41
2023-01-07T16:51:40.146Z,87.55
2023-01-07T16:54:44.336Z,87.94
2023-01-07T16:57:48.010Z,87.72
2023-01-07T17:00:53.687Z,87.70
2023-01-07T17:03:58.907Z,87.36
2023-01-07T17:07:03.504Z,87.12
2023-01-07T17:10:07.336Z,87.74
2023-01-07T17:13:32.966Z,87.44
2023-01-07T17:16:36.693Z,88.08
2023-01-07T17:19:41.357Z,88.64
2023-01-07T17:22:45.893Z,89.03
2023-01-07T17:25:48.732Z,89.08
2023-01-07T17:28:54.072Z,88.84
2023-01-07T17:31:56.944Z,88.70
2023-01-07T17:35:03.834Z,88.72
2023-01-07T17:38:12.918Z,88.74
2023-01-07T17:41:36.570Z,88.76
2023-01-07T17:44:39.303Z,88.14
2023-01-07T17:47:41.945Z,87.85
2023-01-07T17:50:44.679Z,88.50
2023-01-07T17:53:51.050Z,88.98
2023-01-07T17:56:53.719Z,88.88
2023-01-07T17:59:56.479Z,88.85
2023-01-07T18:02:59.259Z,88.59
2023-01-07T18:06:02.428Z,88.42
2023-01-07T18:09:08.578Z,89.03
2023-01-07T18:12:31.665Z,89.56
2023-01-07T18:15:34.387Z,88.99
2023-01-07T18:18:37.021Z,88.95
2023-01-07T18:21:39.827Z,89.88
2023-01-07T18:24:43.958Z,89.45
2023-01-07T18:27:47.011Z,88.38
2023-01-07T18:30:49.717Z,89.31
2023-01-07T18:33:52.608Z,89.64
2023-01-07T18:36:55.392Z,89.65
2023-01-07T18:40:02.324Z,89.34
2023-01-07T18:43:05.869Z,89.68
2023-01-07T18:46:09.615Z,89.77
2023-01-07T18:49:13.367Z,89.78
2023-01-07T18:52:16.450Z,89.42
2023-01-07T18:55:21.076Z,89.35
2023-01-07T18:58:24.534Z,89.46
2023-01-07T19:01:27.416Z,89.37
2023-01-07T19:04:30.264Z,89.18
2023-01-07T19:07:33.174Z,89.82
2023-01-07T19:10:41.576Z,89.64
2023-01-07T19:13:44.315Z,89.57
2023-01-07T19:16:47.009Z,88.73
2023-01-07T19:19:53.881Z,89.20
2023-01-07T19:23:00.306Z,89.78
2023-01-07T19:26:06.939Z,90.25
2023-01-07T19:29:11.319Z,89.79
2023-01-07T19:32:15.194Z,89.73
2023-01-07T19:35:17.939Z,89.79
2023-01-07T19:38:20.750Z,89.70
2023-01-07T19:41:25.556Z,89.07
2023-01-07T19:44:28.562Z,89.50
2023-01-07T19:47:32.225Z,89.13
2023-01-07T19:50:35.064Z,89.71
2023-01-07T19:53:38.225Z,89.64
2023-01-07T19:56:43.695Z,89.78
2023-01-07T19:59:46.391Z,89.63
2023-01-07T20:02:49.116Z,89.73
2023-01-07T20:05:51.866Z,89.96
2023-01-07T20:08:56.270Z,90.29
2023-01-07T20:12:00.513Z,91.63
2023-01-07T20:15:03.508Z,90.99
2023-01-07T20:18:06.603Z,91.49
2023-01-07T20:21:10.583Z,91.70
2023-01-07T20:24:13.591Z,91.62
2023-01-07T20:27:17.668Z,91.95
2023-01-07T20:30:20.423Z,92.50
2023-01-07T20:33:24.174Z,92.14
2023-01-07T20:36:29.017Z,91.68
2023-01-07T20:39:31.954Z,91.70
2023-01-07T20:42:36.055Z,92.50
2023-01-07T20:45:38.739Z,92.09
2023-01-07T20:48:41.538Z,91.72
2023-01-07T20:51:44.284Z,91.60
2023-01-07T20:54:47.470Z,91.39
2023-01-07T20:57:51.668Z,92.05
2023-01-07T21:00:54.488Z,92.25
2023-01-07T21:03:58.592Z,92.58
2023-01-07T21:07:01.253Z,92.28
2023-01-07T21:10:04.694Z,92.66
2023-01-07T21:13:08.906Z,92.85
2023-01-07T21:16:12.531Z,93.97
2023-01-07T21:19:15.310Z,94.01
2023-01-07T21:22:18.112Z,93.48
2023-01-07T21:25:20.880Z,93.79
2023-01-07T21:28:25.896Z,93.45
2023-01-07T21:31:28.715Z,93.01
2023-01-07T21:34:31.482Z,93.11
2023-01-07T21:37:34.315Z,93.07
2023-01-07T21:40:38.443Z,93.03
2023-01-07T21:43:43.293Z,92.53
2023-01-07T21:46:46.073Z,92.46
2023-01-07T21:49:51.531Z,92.66
2023-01-07T21:52:54.281Z,92.49
2023-01-07T21:55:57.051Z,92.20
2023-01-07T21:59:04.692Z,92.59
2023-01-07T22:02:07.569Z,92.13
2023-01-07T22:05:11.875Z,93.01
2023-01-07T22:08:14.625Z,93.18
2023-01-07T22:11:18.242Z,93.51
2023-01-07T22:14:24.328Z,92.84
2023-01-07T22:17:27.132Z,92.23
2023-01-07T22:20:30.127Z,92.29
2023-01-07T22:23:32.874Z,92.71
2023-01-07T22:26:36.288Z,92.45
2023-01-07T22:29:40.952Z,92.40
2023-01-07T22:32:43.563Z,92.97
2023-01-07T22:35:48.064Z,92.64
2023-01-07T22:38:52.497Z,93.00
2023-01-07T22:41:59.295Z,92.58
2023-01-07T22:45:10.102Z,93.90
2023-01-07T22:48:16.028Z,93.26
2023-01-07T22:51:24.799Z,93.39
2023-01-07T22:54:28.289Z,93.22
2023-01-07T22:57:31.018Z,92.41
2023-01-07T23:00:46.787Z,91.83
2023-01-07T23:03:50.586Z,92.23
2023-01-07T23:06:53.237Z,92.14
2023-01-07T23:09:55.842Z,91.65
2023-01-07T23:12:58.722Z,91.21
2023-01-07T23:16:03.597Z,91.08
2023-01-07T23:19:06.417Z,91.07
2023-01-07T23:22:09.052Z,91.23
2023-01-07T23:25:11.727Z,91.79
2023-01-07T23:28:15.364Z,91.35
2023-01-07T23:31:19.465Z,91.63
2023-01-07T23:34:23.196Z,92.23
2023-01-07T23:37:25.923Z,92.61
2023-01-07T23:40:28.744Z,91.84
2023-01-07T23:43:32.931Z,91.77
2023-01-07T23:46:36.988Z,91.92
2023-01-07T23:49:39.755Z,92.09
2023-01-07T23:52:42.432Z,91.93
2023-01-07T23:55:51.409Z,91.98
2023-01-07T23:58:54.078Z,92.98
